sensor_id;sensor_type;location;lat;lon;timestamp;pressure;altitude;pressure_sealevel;temperature;humidity
59789;BME280;47353;51.614;5.530;2023-11-19T00:01:26;100783.53;;;12.92;100.00
59789;BME280;47353;51.614;5.530;2023-11-19T00:03:51;100783.78;;;12.96;100.00
59789;BME280;47353;51.614;5.530;2023-11-19T00:06:17;100782.28;;;13.08;100.00
59789;BME280;47353;51.614;5.530;2023-11-19T00:08:42;100776.78;;;13.03;100.00
59789;BME280;47353;51.614;5.530;2023-11-19T00:11:09;100783.72;;;13.06;100.00
59789;BME280;47353;51.614;5.530;2023-11-19T00:13:34;100772.31;;;13.07;100.00
59789;BME280;47353;51.614;5.530;2023-11-19T00:16:00;100778.28;;;13.19;100.00
59789;BME280;47353;51.614;5.530;2023-11-19T00:18:25;100781.25;;;12.99;100.00
59789;BME280;47353;51.614;5.530;2023-11-19T00:24:12;100760.88;;;13.09;100.00
59789;BME280;47353;51.614;5.530;2023-11-19T00:30:18;100751.56;;;13.00;100.00
59789;BME280;47353;51.614;5.530;2023-11-19T00:32:43;100736.47;;;13.06;100.00
59789;BME280;47353;51.614;5.530;2023-11-19T00:35:09;100737.22;;;13.11;100.00
59789;BME280;47353;51.614;5.530;2023-11-19T00:37:39;100730.06;;;13.05;100.00
59789;BME280;47353;51.614;5.530;2023-11-19T00:40:05;100736.94;;;13.13;100.00
59789;BME280;47353;51.614;5.530;2023-11-19T00:42:31;100738.16;;;13.25;100.00
59789;BME280;47353;51.614;5.530;2023-11-19T00:44:56;100751.81;;;13.22;100.00
59789;BME280;47353;51.614;5.530;2023-11-19T00:47:23;100735.75;;;13.19;100.00
59789;BME280;47353;51.614;5.530;2023-11-19T00:49:48;100739.00;;;13.26;100.00
59789;BME280;47353;51.614;5.530;2023-11-19T00:52:14;100736.72;;;13.28;100.00
59789;BME280;47353;51.614;5.530;2023-11-19T00:54:40;100736.53;;;13.24;100.00
59789;BME280;47353;51.614;5.530;2023-11-19T00:57:05;100756.38;;;13.13;100.00
59789;BME280;47353;51.614;5.530;2023-11-19T00:59:31;100747.56;;;13.29;100.00
59789;BME280;47353;51.614;5.530;2023-11-19T01:01:57;100743.50;;;13.22;100.00
59789;BME280;47353;51.614;5.530;2023-11-19T01:04:24;100752.47;;;13.37;100.00
59789;BME280;47353;51.614;5.530;2023-11-19T01:06:49;100764.13;;;13.39;100.00
59789;BME280;47353;51.614;5.530;2023-11-19T01:09:15;100754.28;;;13.47;100.00
59789;BME280;47353;51.614;5.530;2023-11-19T01:11:40;100746.25;;;13.46;100.00
59789;BME280;47353;51.614;5.530;2023-11-19T01:14:06;100756.50;;;13.26;100.00
59789;BME280;47353;51.614;5.530;2023-11-19T01:16:31;100753.13;;;13.29;100.00
59789;BME280;47353;51.614;5.530;2023-11-19T01:18:57;100728.81;;;13.40;100.00
59789;BME280;47353;51.614;5.530;2023-11-19T01:21:22;100715.25;;;13.15;100.00
59789;BME280;47353;51.614;5.530;2023-11-19T01:23:48;100726.22;;;13.25;100.00
59789;BME280;47353;51.614;5.530;2023-11-19T01:26:13;100719.41;;;13.12;100.00
59789;BME280;47353;51.614;5.530;2023-11-19T01:28:39;100710.81;;;13.32;100.00
59789;BME280;47353;51.614;5.530;2023-11-19T01:31:08;100707.34;;;13.22;100.00
59789;BME280;47353;51.614;5.530;2023-11-19T01:33:35;100708.91;;;13.09;100.00
59789;BME280;47353;51.614;5.530;2023-11-19T01:36:19;100697.56;;;13.06;100.00
59789;BME280;47353;51.614;5.530;2023-11-19T01:38:45;100704.97;;;13.15;100.00
59789;BME280;47353;51.614;5.530;2023-11-19T01:41:11;100708.19;;;13.22;100.00
59789;BME280;47353;51.614;5.530;2023-11-19T01:43:40;100726.91;;;13.17;100.00
59789;BME280;47353;51.614;5.530;2023-11-19T01:46:08;100725.34;;;13.06;100.00
59789;BME280;47353;51.614;5.530;2023-11-19T01:48:41;100731.00;;;12.96;100.00
59789;BME280;47353;51.614;5.530;2023-11-19T01:51:08;100720.50;;;13.16;100.00
59789;BME280;47353;51.614;5.530;2023-11-19T01:53:36;100720.91;;;13.28;100.00
59789;BME280;47353;51.614;5.530;2023-11-19T01:56:02;100729.72;;;13.12;100.00
59789;BME280;47353;51.614;5.530;2023-11-19T01:58:29;100712.97;;;12.93;100.00
59789;BME280;47353;51.614;5.530;2023-11-19T02:00:56;100710.09;;;13.03;100.00
59789;BME280;47353;51.614;5.530;2023-11-19T02:03:22;100717.91;;;13.01;100.00
59789;BME280;47353;51.614;5.530;2023-11-19T02:05:49;100710.94;;;13.04;100.00
59789;BME280;47353;51.614;5.530;2023-11-19T02:08:16;100714.97;;;12.88;100.00
59789;BME280;47353;51.614;5.530;2023-11-19T02:10:41;100696.06;;;12.90;100.00
59789;BME280;47353;51.614;5.530;2023-11-19T02:13:08;100699.44;;;12.87;100.00
59789;BME280;47353;51.614;5.530;2023-11-19T02:15:35;100689.31;;;12.72;100.00
59789;BME280;47353;51.614;5.530;2023-11-19T02:18:20;100691.53;;;12.75;100.00
59789;BME280;47353;51.614;5.530;2023-11-19T02:20:48;100702.56;;;12.80;100.00
59789;BME280;47353;51.614;5.530;2023-11-19T02:23:14;100694.47;;;12.84;100.00
59789;BME280;47353;51.614;5.530;2023-11-19T02:25:40;100693.53;;;12.93;100.00
59789;BME280;47353;51.614;5.530;2023-11-19T02:28:07;100710.94;;;12.99;100.00
59789;BME280;47353;51.614;5.530;2023-11-19T02:30:32;100700.56;;;12.86;100.00
59789;BME280;47353;51.614;5.530;2023-11-19T02:36:20;100708.75;;;12.96;100.00
59789;BME280;47353;51.614;5.530;2023-11-19T02:38:46;100713.69;;;13.04;100.00
59789;BME280;47353;51.614;5.530;2023-11-19T02:41:13;100706.66;;;13.11;100.00
59789;BME280;47353;51.614;5.530;2023-11-19T02:43:39;100702.59;;;13.04;100.00
59789;BME280;47353;51.614;5.530;2023-11-19T02:46:24;100708.16;;;12.99;100.00
59789;BME280;47353;51.614;5.530;2023-11-19T02:48:49;100709.72;;;13.10;100.00
59789;BME280;47353;51.614;5.530;2023-11-19T02:51:15;100729.72;;;13.12;100.00
59789;BME280;47353;51.614;5.530;2023-11-19T02:53:40;100724.22;;;13.07;100.00
59789;BME280;47353;51.614;5.530;2023-11-19T02:56:06;100708.59;;;12.87;100.00
59789;BME280;47353;51.614;5.530;2023-11-19T02:58:43;100717.38;;;12.94;100.00
59789;BME280;47353;51.614;5.530;2023-11-19T03:01:10;100716.56;;;12.94;100.00
59789;BME280;47353;51.614;5.530;2023-11-19T03:03:44;100724.47;;;12.82;100.00
59789;BME280;47353;51.614;5.530;2023-11-19T03:06:14;100718.63;;;12.60;100.00
59789;BME280;47353;51.614;5.530;2023-11-19T03:08:39;100711.19;;;12.55;100.00
59789;BME280;47353;51.614;5.530;2023-11-19T03:11:05;100714.63;;;12.42;100.00
59789;BME280;47353;51.614;5.530;2023-11-19T03:13:30;100713.28;;;12.40;100.00
59789;BME280;47353;51.614;5.530;2023-11-19T03:15:56;100721.38;;;12.31;100.00
59789;BME280;47353;51.614;5.530;2023-11-19T03:18:21;100718.56;;;12.36;100.00
59789;BME280;47353;51.614;5.530;2023-11-19T03:20:47;100709.13;;;12.37;100.00
59789;BME280;47353;51.614;5.530;2023-11-19T03:23:12;100712.41;;;12.11;100.00
59789;BME280;47353;51.614;5.530;2023-11-19T03:25:38;100716.28;;;12.10;100.00
59789;BME280;47353;51.614;5.530;2023-11-19T03:28:04;100713.50;;;12.15;100.00
59789;BME280;47353;51.614;5.530;2023-11-19T03:30:30;100724.59;;;12.15;100.00
59789;BME280;47353;51.614;5.530;2023-11-19T03:32:56;100720.25;;;11.99;100.00
59789;BME280;47353;51.614;5.530;2023-11-19T03:35:24;100713.53;;;12.10;100.00
59789;BME280;47353;51.614;5.530;2023-11-19T03:37:50;100714.53;;;11.90;100.00
59789;BME280;47353;51.614;5.530;2023-11-19T03:40:17;100700.25;;;12.02;100.00
59789;BME280;47353;51.614;5.530;2023-11-19T03:42:44;100712.03;;;11.89;100.00
59789;BME280;47353;51.614;5.530;2023-11-19T03:45:09;100714.22;;;11.92;100.00
59789;BME280;47353;51.614;5.530;2023-11-19T03:47:35;100711.72;;;11.95;100.00
59789;BME280;47353;51.614;5.530;2023-11-19T03:50:01;100714.09;;;12.07;100.00
59789;BME280;47353;51.614;5.530;2023-11-19T03:52:26;100711.47;;;11.92;100.00
59789;BME280;47353;51.614;5.530;2023-11-19T03:54:55;100704.94;;;12.06;100.00
59789;BME280;47353;51.614;5.530;2023-11-19T03:57:21;100707.97;;;12.10;100.00
59789;BME280;47353;51.614;5.530;2023-11-19T03:59:47;100698.47;;;11.87;100.00
59789;BME280;47353;51.614;5.530;2023-11-19T04:02:12;100691.13;;;12.01;100.00
59789;BME280;47353;51.614;5.530;2023-11-19T04:04:38;100695.91;;;11.91;100.00
59789;BME280;47353;51.614;5.530;2023-11-19T04:07:05;100695.91;;;11.91;100.00
59789;BME280;47353;51.614;5.530;2023-11-19T04:09:51;100699.34;;;11.77;100.00
59789;BME280;47353;51.614;5.530;2023-11-19T04:12:17;100688.44;;;11.91;100.00
59789;BME280;47353;51.614;5.530;2023-11-19T04:14:42;100701.09;;;12.02;100.00
59789;BME280;47353;51.614;5.530;2023-11-19T04:17:07;100698.19;;;11.84;100.00
59789;BME280;47353;51.614;5.530;2023-11-19T04:19:33;100695.69;;;11.87;100.00
59789;BME280;47353;51.614;5.530;2023-11-19T04:21:58;100715.09;;;11.87;100.00
59789;BME280;47353;51.614;5.530;2023-11-19T04:24:24;100714.22;;;11.92;100.00
59789;BME280;47353;51.614;5.530;2023-11-19T04:26:49;100700.66;;;11.90;100.00
59789;BME280;47353;51.614;5.530;2023-11-19T04:29:16;100717.84;;;11.92;100.00
59789;BME280;47353;51.614;5.530;2023-11-19T04:31:45;100714.78;;;11.94;100.00
59789;BME280;47353;51.614;5.530;2023-11-19T04:34:11;100716.19;;;11.86;100.00
59789;BME280;47353;51.614;5.530;2023-11-19T04:36:37;100730.31;;;11.90;100.00
59789;BME280;47353;51.614;5.530;2023-11-19T04:39:03;100741.69;;;11.93;100.00
59789;BME280;47353;51.614;5.530;2023-11-19T04:41:50;100724.81;;;11.85;100.00
59789;BME280;47353;51.614;5.530;2023-11-19T04:44:17;100711.16;;;11.93;100.00
59789;BME280;47353;51.614;5.530;2023-11-19T04:46:43;100724.78;;;11.90;100.00
59789;BME280;47353;51.614;5.530;2023-11-19T04:49:09;100725.28;;;11.97;100.00
59789;BME280;47353;51.614;5.530;2023-11-19T04:51:43;100724.56;;;11.81;100.00
59789;BME280;47353;51.614;5.530;2023-11-19T04:54:09;100721.44;;;11.88;100.00
59789;BME280;47353;51.614;5.530;2023-11-19T04:56:36;100742.25;;;11.90;100.00
59789;BME280;47353;51.614;5.530;2023-11-19T04:59:05;100737.91;;;11.74;100.00
59789;BME280;47353;51.614;5.530;2023-11-19T05:01:34;100742.06;;;11.77;100.00
59789;BME280;47353;51.614;5.530;2023-11-19T05:04:00;100740.97;;;11.72;100.00
59789;BME280;47353;51.614;5.530;2023-11-19T05:06:30;100743.97;;;11.81;100.00
59789;BME280;47353;51.614;5.530;2023-11-19T05:08:56;100743.13;;;11.86;100.00
59789;BME280;47353;51.614;5.530;2023-11-19T05:11:22;100739.75;;;11.94;100.00
59789;BME280;47353;51.614;5.530;2023-11-19T05:13:47;100740.56;;;11.94;100.00
59789;BME280;47353;51.614;5.530;2023-11-19T05:16:13;100726.38;;;12.01;100.00
59789;BME280;47353;51.614;5.530;2023-11-19T05:18:42;100732.84;;;11.86;100.00
59789;BME280;47353;51.614;5.530;2023-11-19T05:21:10;100745.91;;;11.86;100.00
59789;BME280;47353;51.614;5.530;2023-11-19T05:23:35;100750.88;;;11.89;100.00
59789;BME280;47353;51.614;5.530;2023-11-19T05:26:01;100743.97;;;11.81;100.00
59789;BME280;47353;51.614;5.530;2023-11-19T05:28:27;100742.25;;;11.90;100.00
59789;BME280;47353;51.614;5.530;2023-11-19T05:30:52;100731.03;;;11.66;100.00
59789;BME280;47353;51.614;5.530;2023-11-19T05:33:17;100740.47;;;11.65;100.00
59789;BME280;47353;51.614;5.530;2023-11-19T05:35:43;100732.38;;;11.74;100.00
59789;BME280;47353;51.614;5.530;2023-11-19T05:38:08;100752.03;;;11.83;100.00
59789;BME280;47353;51.614;5.530;2023-11-19T05:40:35;100749.84;;;11.74;100.00
59789;BME280;47353;51.614;5.530;2023-11-19T05:43:01;100745.13;;;11.75;100.00
59789;BME280;47353;51.614;5.530;2023-11-19T05:45:26;100760.16;;;11.59;100.00
59789;BME280;47353;51.614;5.530;2023-11-19T05:47:52;100759.28;;;11.73;100.00
59789;BME280;47353;51.614;5.530;2023-11-19T05:50:17;100757.63;;;11.67;100.00
59789;BME280;47353;51.614;5.530;2023-11-19T05:52:43;100761.53;;;11.66;100.00
59789;BME280;47353;51.614;5.530;2023-11-19T05:55:08;100758.16;;;11.74;100.00
59789;BME280;47353;51.614;5.530;2023-11-19T05:57:37;100749.31;;;11.67;100.00
59789;BME280;47353;51.614;5.530;2023-11-19T06:00:03;100761.56;;;11.56;100.00
59789;BME280;47353;51.614;5.530;2023-11-19T06:02:32;100758.22;;;11.64;100.00
59789;BME280;47353;51.614;5.530;2023-11-19T06:04:58;100759.94;;;11.50;100.00
59789;BME280;47353;51.614;5.530;2023-11-19T06:07:23;100771.25;;;11.59;100.00
59789;BME280;47353;51.614;5.530;2023-11-19T06:09:49;100767.69;;;11.53;100.00
59789;BME280;47353;51.614;5.530;2023-11-19T06:12:14;100766.00;;;11.52;100.00
59789;BME280;47353;51.614;5.530;2023-11-19T06:14:40;100752.72;;;11.49;100.00
59789;BME280;47353;51.614;5.530;2023-11-19T06:17:05;100761.63;;;11.41;100.00
59789;BME280;47353;51.614;5.530;2023-11-19T06:19:31;100757.69;;;11.62;100.00
59789;BME280;47353;51.614;5.530;2023-11-19T06:21:56;100761.59;;;11.51;100.00
59789;BME280;47353;51.614;5.530;2023-11-19T06:24:21;100755.84;;;11.33;100.00
59789;BME280;47353;51.614;5.530;2023-11-19T06:26:47;100746.69;;;11.37;100.00
59789;BME280;47353;51.614;5.530;2023-11-19T06:29:13;100745.06;;;11.31;100.00
59789;BME280;47353;51.614;5.530;2023-11-19T06:31:43;100762.53;;;11.32;100.00
59789;BME280;47353;51.614;5.530;2023-11-19T06:34:09;100748.19;;;11.10;100.00
59789;BME280;47353;51.614;5.530;2023-11-19T06:36:35;100753.16;;;11.18;100.00
59789;BME280;47353;51.614;5.530;2023-11-19T06:39:00;100758.91;;;11.36;100.00
59789;BME280;47353;51.614;5.530;2023-11-19T06:41:27;100722.97;;;11.11;100.00
59789;BME280;47353;51.614;5.530;2023-11-19T06:43:54;100742.94;;;11.13;100.00
59789;BME280;47353;51.614;5.530;2023-11-19T06:46:19;100734.94;;;11.02;100.00
59789;BME280;47353;51.614;5.530;2023-11-19T06:48:45;100742.66;;;11.10;100.00
59789;BME280;47353;51.614;5.530;2023-11-19T06:51:11;100739.34;;;11.08;100.00
59789;BME280;47353;51.614;5.530;2023-11-19T06:53:36;100751.25;;;11.08;100.00
59789;BME280;47353;51.614;5.530;2023-11-19T06:56:02;100751.19;;;11.18;100.00
59789;BME280;47353;51.614;5.530;2023-11-19T06:58:40;100760.34;;;11.19;100.00
59789;BME280;47353;51.614;5.530;2023-11-19T07:01:06;100762.03;;;11.15;100.00
59789;BME280;47353;51.614;5.530;2023-11-19T07:03:34;100768.94;;;11.12;100.00
59789;BME280;47353;51.614;5.530;2023-11-19T07:06:00;100787.59;;;10.92;100.00
59789;BME280;47353;51.614;5.530;2023-11-19T07:08:25;100776.19;;;11.03;100.00
59789;BME280;47353;51.614;5.530;2023-11-19T07:10:52;100776.72;;;11.10;100.00
59789;BME280;47353;51.614;5.530;2023-11-19T07:13:17;100782.00;;;11.02;100.00
59789;BME280;47353;51.614;5.530;2023-11-19T07:15:44;100797.50;;;11.03;100.00
59789;BME280;47353;51.614;5.530;2023-11-19T07:18:09;100792.25;;;11.01;100.00
59789;BME280;47353;51.614;5.530;2023-11-19T07:20:37;100788.38;;;10.97;100.00
59789;BME280;47353;51.614;5.530;2023-11-19T07:23:03;100805.25;;;11.11;100.00
59789;BME280;47353;51.614;5.530;2023-11-19T07:25:28;100804.44;;;11.10;100.00
59789;BME280;47353;51.614;5.530;2023-11-19T07:27:54;100809.38;;;11.18;100.00
59789;BME280;47353;51.614;5.530;2023-11-19T07:30:19;100811.59;;;11.21;100.00
59789;BME280;47353;51.614;5.530;2023-11-19T07:32:45;100807.72;;;11.22;100.00
59789;BME280;47353;51.614;5.530;2023-11-19T07:35:10;100808.31;;;11.04;100.00
59789;BME280;47353;51.614;5.530;2023-11-19T07:37:35;100824.91;;;11.19;100.00
59789;BME280;47353;51.614;5.530;2023-11-19T07:40:01;100825.47;;;11.16;100.00
59789;BME280;47353;51.614;5.530;2023-11-19T07:42:26;100827.34;;;11.31;100.00
59789;BME280;47353;51.614;5.530;2023-11-19T07:44:52;100818.53;;;11.19;100.00
59789;BME280;47353;51.614;5.530;2023-11-19T07:47:19;100828.75;;;11.28;100.00
59789;BME280;47353;51.614;5.530;2023-11-19T07:49:45;100823.25;;;11.13;100.00
59789;BME280;47353;51.614;5.530;2023-11-19T07:52:10;100810.50;;;11.17;100.00
59789;BME280;47353;51.614;5.530;2023-11-19T07:54:35;100816.81;;;11.38;100.00
59789;BME280;47353;51.614;5.530;2023-11-19T07:57:01;100822.34;;;11.38;100.00
59789;BME280;47353;51.614;5.530;2023-11-19T07:59:27;100817.09;;;11.31;100.00
59789;BME280;47353;51.614;5.530;2023-11-19T08:01:52;100813.97;;;11.48;100.00
59789;BME280;47353;51.614;5.530;2023-11-19T08:04:17;100819.88;;;11.36;100.00
59789;BME280;47353;51.614;5.530;2023-11-19T08:06:43;100824.50;;;11.51;100.00
59789;BME280;47353;51.614;5.530;2023-11-19T08:09:09;100839.72;;;11.58;100.00
59789;BME280;47353;51.614;5.530;2023-11-19T08:11:40;100830.63;;;11.48;100.00
59789;BME280;47353;51.614;5.530;2023-11-19T08:14:05;100832.81;;;11.51;100.00
59789;BME280;47353;51.614;5.530;2023-11-19T08:16:30;100833.31;;;11.73;100.00
59789;BME280;47353;51.614;5.530;2023-11-19T08:18:56;100831.59;;;11.87;100.00
59789;BME280;47353;51.614;5.530;2023-11-19T08:21:44;100833.81;;;11.80;100.00
59789;BME280;47353;51.614;5.530;2023-11-19T08:24:09;100843.19;;;11.94;100.00
59789;BME280;47353;51.614;5.530;2023-11-19T08:36:40;100839.09;;;12.25;100.00
59789;BME280;47353;51.614;5.530;2023-11-19T08:39:05;100833.88;;;12.52;100.00
59789;BME280;47353;51.614;5.530;2023-11-19T08:41:33;100838.06;;;12.55;100.00
59789;BME280;47353;51.614;5.530;2023-11-19T08:47:02;100830.22;;;12.62;100.00
59789;BME280;47353;51.614;5.530;2023-11-19T08:49:28;100816.78;;;12.74;100.00
59789;BME280;47353;51.614;5.530;2023-11-19T08:51:53;100840.38;;;12.76;100.00
59789;BME280;47353;51.614;5.530;2023-11-19T08:54:18;100838.50;;;12.67;100.00
59789;BME280;47353;51.614;5.530;2023-11-19T08:56:45;100835.44;;;12.35;100.00
59789;BME280;47353;51.614;5.530;2023-11-19T08:59:10;100832.75;;;12.87;100.00
59789;BME280;47353;51.614;5.530;2023-11-19T09:01:36;100842.44;;;12.61;100.00
59789;BME280;47353;51.614;5.530;2023-11-19T09:04:01;100831.63;;;12.59;100.00
59789;BME280;47353;51.614;5.530;2023-11-19T09:06:27;100843.50;;;12.98;100.00
59789;BME280;47353;51.614;5.530;2023-11-19T09:08:52;100836.56;;;12.96;100.00
59789;BME280;47353;51.614;5.530;2023-11-19T09:11:18;100831.00;;;12.96;100.00
59789;BME280;47353;51.614;5.530;2023-11-19T09:13:43;100826.63;;;12.90;100.00
59789;BME280;47353;51.614;5.530;2023-11-19T09:16:11;100821.94;;;12.57;100.00
59789;BME280;47353;51.614;5.530;2023-11-19T09:18:37;100812.25;;;12.83;100.00
59789;BME280;47353;51.614;5.530;2023-11-19T09:21:02;100829.09;;;12.63;100.00
59789;BME280;47353;51.614;5.530;2023-11-19T09:23:28;100815.13;;;12.73;100.00
59789;BME280;47353;51.614;5.530;2023-11-19T09:25:55;100824.00;;;12.75;100.00
59789;BME280;47353;51.614;5.530;2023-11-19T09:28:21;100831.16;;;12.81;100.00
59789;BME280;47353;51.614;5.530;2023-11-19T09:30:46;100832.63;;;13.02;100.00
59789;BME280;47353;51.614;5.530;2023-11-19T09:33:12;100824.88;;;12.99;100.00
59789;BME280;47353;51.614;5.530;2023-11-19T09:35:37;100816.59;;;13.46;99.90
59789;BME280;47353;51.614;5.530;2023-11-19T09:38:03;100837.88;;;13.98;95.93
59789;BME280;47353;51.614;5.530;2023-11-19T09:40:30;100835.44;;;14.33;92.56
59789;BME280;47353;51.614;5.530;2023-11-19T09:42:57;100821.44;;;14.38;91.54
59789;BME280;47353;51.614;5.530;2023-11-19T09:45:27;100838.19;;;14.15;92.86
59789;BME280;47353;51.614;5.530;2023-11-19T09:47:53;100836.72;;;14.41;91.36
59789;BME280;47353;51.614;5.530;2023-11-19T09:50:22;100838.22;;;14.52;89.42
59789;BME280;47353;51.614;5.530;2023-11-19T09:52:47;100838.50;;;14.50;87.89
59789;BME280;47353;51.614;5.530;2023-11-19T09:55:13;100837.78;;;14.26;90.51
59789;BME280;47353;51.614;5.530;2023-11-19T09:57:39;100853.66;;;14.26;90.86
59789;BME280;47353;51.614;5.530;2023-11-19T10:00:07;100834.97;;;14.08;92.18
59789;BME280;47353;51.614;5.530;2023-11-19T10:02:34;100851.66;;;13.89;92.52
59789;BME280;47353;51.614;5.530;2023-11-19T10:05:22;100821.31;;;13.46;93.52
59789;BME280;47353;51.614;5.530;2023-11-19T10:07:49;100824.75;;;13.61;94.51
59789;BME280;47353;51.614;5.530;2023-11-19T10:10:15;100828.78;;;13.92;92.19
59789;BME280;47353;51.614;5.530;2023-11-19T10:12:46;100833.47;;;14.15;90.25
59789;BME280;47353;51.614;5.530;2023-11-19T10:15:20;100843.75;;;13.96;90.84
59789;BME280;47353;51.614;5.530;2023-11-19T10:17:48;100821.06;;;13.66;92.30
59789;BME280;47353;51.614;5.530;2023-11-19T10:20:13;100834.41;;;13.21;96.41
59789;BME280;47353;51.614;5.530;2023-11-19T10:22:39;100847.03;;;13.32;95.36
59789;BME280;47353;51.614;5.530;2023-11-19T10:25:25;100821.69;;;13.39;95.64
59789;BME280;47353;51.614;5.530;2023-11-19T10:27:52;100823.66;;;13.81;93.50
59789;BME280;47353;51.614;5.530;2023-11-19T10:30:25;100821.19;;;14.16;91.42
59789;BME280;47353;51.614;5.530;2023-11-19T10:33:04;100836.75;;;14.17;90.01
59789;BME280;47353;51.614;5.530;2023-11-19T10:35:51;100836.94;;;14.44;88.38
59789;BME280;47353;51.614;5.530;2023-11-19T10:38:20;100836.34;;;14.47;89.07
59789;BME280;47353;51.614;5.530;2023-11-19T10:40:47;100839.72;;;14.63;87.53
59789;BME280;47353;51.614;5.530;2023-11-19T10:43:13;100838.09;;;15.07;86.22
59789;BME280;47353;51.614;5.530;2023-11-19T10:45:40;100822.25;;;15.76;83.37
59789;BME280;47353;51.614;5.530;2023-11-19T10:48:06;100824.16;;;15.35;80.79
59789;BME280;47353;51.614;5.530;2023-11-19T10:50:40;100817.88;;;15.16;81.78
59789;BME280;47353;51.614;5.530;2023-11-19T10:53:07;100820.25;;;14.76;85.59
59789;BME280;47353;51.614;5.530;2023-11-19T10:55:35;100811.91;;;15.63;82.29
59789;BME280;47353;51.614;5.530;2023-11-19T10:58:03;100814.84;;;14.98;83.28
59789;BME280;47353;51.614;5.530;2023-11-19T11:00:30;100843.50;;;14.85;85.32
59789;BME280;47353;51.614;5.530;2023-11-19T11:03:01;100807.09;;;14.95;84.98
59789;BME280;47353;51.614;5.530;2023-11-19T11:05:29;100831.03;;;15.69;82.25
59789;BME280;47353;51.614;5.530;2023-11-19T11:07:58;100831.63;;;15.39;81.15
59789;BME280;47353;51.614;5.530;2023-11-19T11:10:26;100805.88;;;14.69;83.70
59789;BME280;47353;51.614;5.530;2023-11-19T11:12:52;100806.03;;;14.27;87.99
59789;BME280;47353;51.614;5.530;2023-11-19T11:15:27;100808.19;;;14.12;88.82
59789;BME280;47353;51.614;5.530;2023-11-19T11:18:00;100800.78;;;13.84;90.78
59789;BME280;47353;51.614;5.530;2023-11-19T11:20:30;100798.00;;;13.84;90.39
59789;BME280;47353;51.614;5.530;2023-11-19T11:25:44;100803.63;;;13.60;92.67
59789;BME280;47353;51.614;5.530;2023-11-19T11:28:21;100814.16;;;13.39;93.81
59789;BME280;47353;51.614;5.530;2023-11-19T11:33:41;100797.84;;;13.33;95.80
59789;BME280;47353;51.614;5.530;2023-11-19T11:36:37;100776.84;;;13.22;94.63
59789;BME280;47353;51.614;5.530;2023-11-19T11:39:07;100798.72;;;13.28;94.16
59789;BME280;47353;51.614;5.530;2023-11-19T11:41:33;100787.06;;;13.26;94.60
59789;BME280;47353;51.614;5.530;2023-11-19T11:43:58;100788.97;;;13.07;97.06
59789;BME280;47353;51.614;5.530;2023-11-19T11:49:08;100788.88;;;12.89;100.00
59789;BME280;47353;51.614;5.530;2023-11-19T11:57:06;100776.72;;;13.32;98.02
59789;BME280;47353;51.614;5.530;2023-11-19T11:59:52;100777.47;;;13.61;96.14
59789;BME280;47353;51.614;5.530;2023-11-19T12:02:22;100761.53;;;13.67;96.60
59789;BME280;47353;51.614;5.530;2023-11-19T12:04:52;100758.84;;;14.81;91.84
59789;BME280;47353;51.614;5.530;2023-11-19T12:07:19;100785.34;;;15.11;86.93
59789;BME280;47353;51.614;5.530;2023-11-19T12:09:52;100775.03;;;14.34;89.86
59789;BME280;47353;51.614;5.530;2023-11-19T12:12:19;100777.56;;;13.93;93.03
59789;BME280;47353;51.614;5.530;2023-11-19T12:19:59;100771.75;;;13.71;94.37
59789;BME280;47353;51.614;5.530;2023-11-19T12:22:25;100744.94;;;13.99;93.40
59789;BME280;47353;51.614;5.530;2023-11-19T12:24:52;100759.16;;;14.66;90.11
59789;BME280;47353;51.614;5.530;2023-11-19T12:27:22;100749.09;;;15.11;87.69
59789;BME280;47353;51.614;5.530;2023-11-19T12:29:48;100767.56;;;15.07;85.31
59789;BME280;47353;51.614;5.530;2023-11-19T12:32:14;100759.19;;;15.07;85.10
59789;BME280;47353;51.614;5.530;2023-11-19T12:34:40;100751.28;;;15.41;83.05
59789;BME280;47353;51.614;5.530;2023-11-19T12:37:06;100755.91;;;15.32;83.07
59789;BME280;47353;51.614;5.530;2023-11-19T12:39:32;100770.50;;;15.92;81.45
59789;BME280;47353;51.614;5.530;2023-11-19T12:41:57;100779.31;;;15.99;77.89
59789;BME280;47353;51.614;5.530;2023-11-19T12:51:10;100775.94;;;14.61;85.58
59789;BME280;47353;51.614;5.530;2023-11-19T12:53:48;100772.09;;;14.89;84.51
59789;BME280;47353;51.614;5.530;2023-11-19T12:56:15;100763.56;;;14.67;86.34
59789;BME280;47353;51.614;5.530;2023-11-19T13:02:03;100757.03;;;14.08;89.39
59789;BME280;47353;51.614;5.530;2023-11-19T13:04:31;100768.38;;;13.93;90.22
59789;BME280;47353;51.614;5.530;2023-11-19T13:06:59;100752.13;;;13.63;91.90
59789;BME280;47353;51.614;5.530;2023-11-19T13:09:28;100767.78;;;13.59;93.33
59789;BME280;47353;51.614;5.530;2023-11-19T13:11:55;100747.25;;;12.84;100.00
59789;BME280;47353;51.614;5.530;2023-11-19T13:14:21;100753.56;;;12.32;100.00
59789;BME280;47353;51.614;5.530;2023-11-19T13:16:47;100730.72;;;12.12;100.00
59789;BME280;47353;51.614;5.530;2023-11-19T13:19:15;100740.19;;;12.06;100.00
59789;BME280;47353;51.614;5.530;2023-11-19T13:21:45;100727.72;;;12.03;100.00
59789;BME280;47353;51.614;5.530;2023-11-19T13:24:13;100749.75;;;12.23;100.00
59789;BME280;47353;51.614;5.530;2023-11-19T13:26:38;100751.00;;;12.41;100.00
59789;BME280;47353;51.614;5.530;2023-11-19T13:29:04;100742.66;;;12.69;100.00
59789;BME280;47353;51.614;5.530;2023-11-19T13:31:29;100743.34;;;12.85;100.00
59789;BME280;47353;51.614;5.530;2023-11-19T13:33:55;100743.63;;;12.83;100.00
59789;BME280;47353;51.614;5.530;2023-11-19T13:36:21;100754.09;;;12.91;100.00